Blackford, Kentucky
Current Conditions -  °F | °C
As of 11:55 PM on Saturday 22 Nov 2014 (Local Time) from K5M9 Reporting Station
Clear Clear  
Wind Chill: 51°   Ceiling: Unl
Heat Index: 51°   Visibility: 10mi
Dew Point: 39°   Wind: 5mph
Humidity: 64%   Direction: 170°S
Pressure: 29.97"   Gusts: NA
Location:  37.45°N, 87.94°W
Report Text: K5M9 230555Z AUTO 17004KT 10SM CLR 11/04 A2997 RMK AO2 T01070041 10145 20107 401770065
Loading
Personal Weather Stations






























Interactive Weather Map New forecast layout! Learn more

10-Day Weather Forecast

Advertisements
Track Severe Weather on mobile